createdAt,value
2023-04-10T00:01:01.870Z,57.67
2023-04-10T00:03:30.109Z,59.53
2023-04-10T00:05:58.255Z,63.00
2023-04-10T00:08:27.613Z,63.10
2023-04-10T00:10:56.205Z,61.47
2023-04-10T00:13:24.339Z,64.15
2023-04-10T00:15:52.404Z,63.28
2023-04-10T00:18:20.424Z,61.40
2023-04-10T00:20:48.448Z,65.60
2023-04-10T00:23:16.642Z,59.47
2023-04-10T00:25:46.011Z,64.55
2023-04-10T00:28:14.463Z,59.75
2023-04-10T00:30:42.599Z,59.72
2023-04-10T00:33:10.631Z,59.67
2023-04-10T00:35:38.720Z,58.95
2023-04-10T00:38:06.765Z,61.78
2023-04-10T00:40:34.913Z,60.90
2023-04-10T00:43:04.419Z,60.03
2023-04-10T00:45:32.541Z,60.63
2023-04-10T00:48:00.828Z,58.35
2023-04-10T00:50:29.046Z,62.30
2023-04-10T00:53:00.872Z,61.22
2023-04-10T00:55:29.054Z,59.47
2023-04-10T00:57:58.236Z,62.45
2023-04-10T01:00:27.695Z,61.70
2023-04-10T01:02:56.388Z,56.63
2023-04-10T01:05:25.523Z,57.67
2023-04-10T01:08:03.741Z,61.97
2023-04-10T01:10:41.607Z,60.85
2023-04-10T01:13:17.379Z,60.40
2023-04-10T01:15:50.628Z,62.25
2023-04-10T01:18:27.888Z,59.38
2023-04-10T01:20:56.943Z,60.10
2023-04-10T01:23:48.341Z,60.10
2023-04-10T01:26:18.297Z,60.83
2023-04-10T01:29:01.470Z,60.30
2023-04-10T01:31:37.507Z,58.67
2023-04-10T01:34:09.608Z,57.78
2023-04-10T01:36:42.036Z,61.50
2023-04-10T01:39:11.496Z,62.20
2023-04-10T01:41:42.870Z,57.53
2023-04-10T01:44:16.124Z,60.30
2023-04-10T01:46:45.803Z,59.47
2023-04-10T01:49:16.406Z,59.65
2023-04-10T01:51:45.317Z,57.40
2023-04-10T01:54:14.398Z,56.05
2023-04-10T01:56:43.364Z,56.78
2023-04-10T01:59:13.987Z,54.72
2023-04-10T02:01:42.179Z,56.33
2023-04-10T02:04:10.527Z,58.63
2023-04-10T02:06:46.064Z,54.15
2023-04-10T02:09:23.061Z,54.13
2023-04-10T02:11:59.838Z,53.58
2023-04-10T02:14:33.769Z,53.25
2023-04-10T02:17:03.792Z,52.97
2023-04-10T02:19:33.876Z,51.30
2023-04-10T02:22:02.630Z,56.10
2023-04-10T02:24:31.137Z,52.58
2023-04-10T02:26:59.428Z,50.90
2023-04-10T02:29:27.573Z,58.53
2023-04-10T02:31:57.390Z,52.00
2023-04-10T02:34:25.643Z,54.30
2023-04-10T02:36:53.917Z,54.22
2023-04-10T02:39:22.609Z,55.78
2023-04-10T02:41:53.004Z,56.13
2023-04-10T02:44:21.710Z,53.28
2023-04-10T02:46:49.770Z,49.27
2023-04-10T02:49:19.948Z,52.03
2023-04-10T02:51:48.015Z,52.50
2023-04-10T02:54:16.135Z,49.58
2023-04-10T02:56:44.521Z,52.83
2023-04-10T02:59:13.509Z,51.75
2023-04-10T03:01:42.246Z,53.33
2023-04-10T03:04:10.600Z,54.47
2023-04-10T03:06:42.594Z,54.57
2023-04-10T03:09:10.730Z,53.55
2023-04-10T03:11:38.748Z,53.50
2023-04-10T03:14:07.776Z,51.28
2023-04-10T03:16:35.801Z,50.63
2023-04-10T03:19:07.532Z,50.70
2023-04-10T03:21:35.565Z,51.15
2023-04-10T03:24:07.191Z,55.33
2023-04-10T03:26:35.345Z,52.30
2023-04-10T03:29:03.694Z,53.50
2023-04-10T03:31:32.081Z,51.22
2023-04-10T03:34:02.007Z,52.55
2023-04-10T03:36:30.138Z,54.47
2023-04-10T03:38:58.268Z,51.28
2023-04-10T03:41:27.670Z,53.45
2023-04-10T03:43:56.378Z,53.33
2023-04-10T03:46:25.176Z,52.55
2023-04-10T03:48:54.310Z,51.10
2023-04-10T03:51:24.528Z,49.93
2023-04-10T03:53:52.924Z,54.70
2023-04-10T03:56:21.486Z,50.92
2023-04-10T03:58:51.250Z,51.15
2023-04-10T04:01:20.725Z,56.53
2023-04-10T04:04:06.545Z,54.28
2023-04-10T04:06:50.050Z,55.60
2023-04-10T04:09:26.920Z,52.33
2023-04-10T04:12:18.248Z,55.53
2023-04-10T04:15:01.158Z,55.17
2023-04-10T04:18:04.577Z,53.28
2023-04-10T04:20:41.859Z,57.17
2023-04-10T04:23:17.769Z,54.80
2023-04-10T04:26:25.066Z,55.03
2023-04-10T04:29:25.112Z,56.00
2023-04-10T04:32:13.025Z,54.75
2023-04-10T04:35:02.566Z,58.03
2023-04-10T04:37:49.610Z,52.50
2023-04-10T04:40:36.043Z,55.97
2023-04-10T04:43:16.138Z,54.00
2023-04-10T04:46:02.619Z,52.93
2023-04-10T04:48:51.022Z,54.03
2023-04-10T04:51:28.539Z,56.40
2023-04-10T04:54:09.845Z,54.43
2023-04-10T04:56:37.932Z,54.67
2023-04-10T04:59:12.832Z,56.57
2023-04-10T05:02:06.126Z,60.63
2023-04-10T05:04:45.010Z,55.53
2023-04-10T05:07:33.710Z,55.20
2023-04-10T05:10:27.407Z,57.47
2023-04-10T05:13:11.413Z,55.17
2023-04-10T05:15:56.130Z,53.27
2023-04-10T05:18:55.119Z,52.37
2023-04-10T05:21:48.102Z,53.63
2023-04-10T05:24:34.743Z,54.07
2023-04-10T05:27:18.730Z,54.70
2023-04-10T05:30:06.057Z,55.50
2023-04-10T05:33:08.320Z,54.95
2023-04-10T05:35:36.440Z,50.23
2023-04-10T05:38:29.026Z,54.00
2023-04-10T05:41:26.448Z,52.13
2023-04-10T05:44:16.315Z,54.90
2023-04-10T05:47:04.643Z,54.00
2023-04-10T05:49:41.387Z,51.07
2023-04-10T05:52:27.831Z,52.13
2023-04-10T05:55:35.519Z,51.23
2023-04-10T05:58:41.755Z,51.30
2023-04-10T06:01:32.729Z,49.95
2023-04-10T06:04:04.567Z,50.60
2023-04-10T06:06:33.181Z,50.80
2023-04-10T06:09:01.245Z,51.08
2023-04-10T06:11:30.840Z,48.22
2023-04-10T06:14:00.372Z,46.15
2023-04-10T06:16:35.958Z,49.60
2023-04-10T06:19:04.114Z,46.33
2023-04-10T06:21:32.168Z,47.35
2023-04-10T06:24:00.230Z,48.08
2023-04-10T06:26:28.381Z,48.50
2023-04-10T06:28:58.264Z,48.60
2023-04-10T06:31:26.392Z,49.90
2023-04-10T06:33:54.829Z,42.38
2023-04-10T06:36:23.244Z,43.90
2023-04-10T06:38:59.346Z,46.92
2023-04-10T06:41:27.649Z,46.40
2023-04-10T06:44:00.504Z,44.92
2023-04-10T06:46:30.271Z,43.33
2023-04-10T06:48:58.611Z,45.25
2023-04-10T06:51:27.790Z,43.60
2023-04-10T06:53:56.212Z,44.17
2023-04-10T06:56:24.520Z,44.25
2023-04-10T06:58:52.971Z,43.42
2023-04-10T07:01:22.895Z,42.25
2023-04-10T07:03:51.435Z,42.97
2023-04-10T07:06:19.812Z,38.53
2023-04-10T07:08:49.815Z,39.42
2023-04-10T07:11:18.113Z,41.78
2023-04-10T07:13:46.496Z,41.83
2023-04-10T07:16:14.882Z,38.75
2023-04-10T07:18:46.318Z,37.60
2023-04-10T07:21:15.889Z,37.45
2023-04-10T07:23:44.239Z,36.95
2023-04-10T07:26:12.606Z,34.53
2023-04-10T07:28:40.861Z,39.13
2023-04-10T07:31:09.229Z,36.58
2023-04-10T07:33:37.488Z,36.60
2023-04-10T07:36:08.350Z,36.53
2023-04-10T07:38:36.686Z,35.40
2023-04-10T07:41:05.158Z,34.22
2023-04-10T07:43:33.442Z,33.88
2023-04-10T07:46:01.918Z,32.72
2023-04-10T07:48:30.563Z,32.05
2023-04-10T07:50:58.968Z,30.88
2023-04-10T07:53:28.666Z,32.88
2023-04-10T07:55:56.968Z,33.33
2023-04-10T07:58:25.203Z,30.42
2023-04-10T08:00:53.788Z,31.65
2023-04-10T08:03:23.068Z,30.80
2023-04-10T08:05:51.818Z,28.38
2023-04-10T08:08:20.088Z,30.10
2023-04-10T08:10:50.089Z,28.50
2023-04-10T08:13:18.378Z,29.30
2023-04-10T08:15:46.677Z,28.58
2023-04-10T08:18:14.900Z,28.00
2023-04-10T08:20:43.149Z,27.55
2023-04-10T08:26:01.089Z,25.23
2023-04-10T08:28:29.386Z,27.63
2023-04-10T08:30:57.674Z,29.27
2023-04-10T08:33:26.058Z,28.13
2023-04-10T08:35:55.372Z,27.15
2023-04-10T08:38:25.076Z,27.33
2023-04-10T08:40:53.550Z,27.92
2023-04-10T08:43:23.253Z,24.63
2023-04-10T08:45:53.285Z,24.75
2023-04-10T08:48:23.982Z,22.98
2023-04-10T08:50:52.952Z,23.52
2023-04-10T08:53:24.228Z,21.63
2023-04-10T08:55:52.603Z,21.85
2023-04-10T08:58:22.607Z,20.73
2023-04-10T09:00:51.079Z,20.00
2023-04-10T09:03:19.802Z,19.85
2023-04-10T09:05:48.217Z,18.33
2023-04-10T09:08:16.689Z,21.75
2023-04-10T09:10:44.947Z,18.13
2023-04-10T09:13:13.269Z,18.63
2023-04-10T09:15:58.444Z,18.23
2023-04-10T09:18:42.958Z,19.23
2023-04-10T09:21:12.453Z,18.10
2023-04-10T09:23:40.925Z,19.00
2023-04-10T09:26:25.495Z,17.88
2023-04-10T09:29:02.144Z,17.88
2023-04-10T09:31:34.226Z,16.15
2023-04-10T09:34:14.033Z,19.90
2023-04-10T09:36:43.097Z,16.92
2023-04-10T09:39:13.017Z,16.35
2023-04-10T09:41:52.096Z,19.63
2023-04-10T09:44:30.121Z,16.55
2023-04-10T09:47:00.341Z,17.45
2023-04-10T09:49:28.793Z,15.18
2023-04-10T09:51:57.082Z,15.63
2023-04-10T09:54:38.162Z,15.60
2023-04-10T09:57:08.436Z,14.95
2023-04-10T09:59:40.666Z,16.40
2023-04-10T10:02:14.216Z,16.02
2023-04-10T10:04:45.835Z,16.10
2023-04-10T10:07:14.818Z,15.32
2023-04-10T10:09:43.766Z,15.88
2023-04-10T10:12:14.028Z,14.73
2023-04-10T10:14:50.925Z,17.40
2023-04-10T10:17:25.568Z,14.88
2023-04-10T10:20:04.269Z,15.13
2023-04-10T10:22:34.060Z,14.30
2023-04-10T10:25:03.617Z,14.98
2023-04-10T10:27:33.313Z,15.20
2023-04-10T10:30:08.531Z,20.63
2023-04-10T10:32:46.966Z,13.18
2023-04-10T10:35:15.515Z,14.32
2023-04-10T10:37:46.021Z,14.23
2023-04-10T10:40:21.678Z,11.70
2023-04-10T10:42:58.906Z,13.00
2023-04-10T10:45:34.303Z,14.65
2023-04-10T10:48:04.137Z,13.80
2023-04-10T10:50:51.808Z,14.32
2023-04-10T10:53:34.049Z,13.30
2023-04-10T10:56:34.876Z,13.63
2023-04-10T10:59:03.395Z,14.15
2023-04-10T11:01:31.810Z,13.95
2023-04-10T11:04:22.732Z,13.02
2023-04-10T11:06:53.171Z,13.60
2023-04-10T11:09:46.514Z,14.55
2023-04-10T11:12:14.902Z,14.55
2023-04-10T11:14:44.219Z,13.65
2023-04-10T11:17:12.813Z,14.18
2023-04-10T11:20:01.033Z,16.90
2023-04-10T11:22:29.545Z,15.13
2023-04-10T11:25:00.368Z,13.65
2023-04-10T11:27:44.899Z,12.73
2023-04-10T11:30:43.704Z,12.75
2023-04-10T11:33:19.541Z,13.07
2023-04-10T11:35:49.429Z,13.77
2023-04-10T11:38:19.361Z,12.38
2023-04-10T11:41:04.185Z,13.88
2023-04-10T11:43:33.817Z,13.27
2023-04-10T11:46:03.595Z,13.82
2023-04-10T11:48:32.235Z,11.90
2023-04-10T11:51:09.134Z,12.90
2023-04-10T11:53:37.547Z,13.60
2023-04-10T11:56:07.714Z,13.40
2023-04-10T11:58:36.084Z,15.18
2023-04-10T12:01:05.635Z,13.20
2023-04-10T12:03:35.880Z,12.77
2023-04-10T12:06:10.497Z,12.02
2023-04-10T12:08:40.925Z,13.77
2023-04-10T12:11:10.669Z,16.13
2023-04-10T12:13:39.753Z,11.70
2023-04-10T12:16:09.966Z,14.68
2023-04-10T12:18:38.781Z,14.70
2023-04-10T12:21:09.281Z,12.63
2023-04-10T12:23:39.841Z,13.07
2023-04-10T12:26:16.750Z,12.95
2023-04-10T12:28:53.571Z,13.57
2023-04-10T12:31:29.347Z,11.95
2023-04-10T12:33:58.660Z,12.73
2023-04-10T12:36:30.238Z,16.42
2023-04-10T12:38:59.286Z,14.15
2023-04-10T12:41:28.685Z,12.13
2023-04-10T12:44:09.122Z,11.20
2023-04-10T12:46:37.694Z,9.43
2023-04-10T12:49:13.591Z,8.70
2023-04-10T12:51:47.675Z,8.90
2023-04-10T12:54:33.421Z,11.13
2023-04-10T12:57:02.384Z,9.82
2023-04-10T12:59:31.393Z,8.95
2023-04-10T13:01:59.990Z,9.93
2023-04-10T13:04:28.434Z,12.35
2023-04-10T13:06:58.256Z,8.82
2023-04-10T13:09:26.483Z,6.97
2023-04-10T13:11:54.816Z,9.55
2023-04-10T13:14:23.993Z,10.40
2023-04-10T13:16:52.314Z,7.85
2023-04-10T13:19:20.721Z,7.97
2023-04-10T13:21:50.771Z,6.07
2023-04-10T13:24:20.517Z,9.43
2023-04-10T13:26:48.987Z,6.70
2023-04-10T13:29:17.242Z,7.50
2023-04-10T13:31:45.630Z,10.65
2023-04-10T13:34:13.843Z,9.82
2023-04-10T13:36:42.292Z,7.03
2023-04-10T13:39:10.743Z,9.10
2023-04-10T13:41:40.526Z,7.55
2023-04-10T13:44:08.798Z,7.47
2023-04-10T13:46:37.179Z,9.57
2023-04-10T13:49:08.611Z,10.18
2023-04-10T13:51:36.946Z,7.15
2023-04-10T13:54:05.742Z,8.18
2023-04-10T13:56:34.034Z,7.82
2023-04-10T13:59:03.815Z,5.55
2023-04-10T14:01:32.104Z,8.30
2023-04-10T14:04:00.608Z,8.55
2023-04-10T14:06:29.086Z,8.10
2023-04-10T14:08:57.450Z,7.30
2023-04-10T14:11:26.617Z,6.38
2023-04-10T14:13:55.046Z,8.07
2023-04-10T14:16:24.873Z,8.90
2023-04-10T14:18:53.477Z,6.65
2023-04-10T14:21:22.066Z,8.73
2023-04-10T14:23:50.438Z,7.70
2023-04-10T14:26:18.882Z,7.80
2023-04-10T14:28:47.170Z,8.43
2023-04-10T14:31:15.627Z,7.18
2023-04-10T14:33:45.335Z,10.15
2023-04-10T14:36:13.864Z,6.72
2023-04-10T14:38:42.250Z,7.28
2023-04-10T14:41:10.623Z,7.75
2023-04-10T14:43:39.191Z,7.38
2023-04-10T14:46:08.173Z,8.90
2023-04-10T14:48:36.571Z,8.18
2023-04-10T14:51:12.758Z,6.25
2023-04-10T14:53:41.064Z,7.03
2023-04-10T14:56:13.324Z,7.35
2023-04-10T14:58:42.479Z,6.72
2023-04-10T15:01:11.699Z,10.48
2023-04-10T15:03:40.644Z,7.93
2023-04-10T15:06:10.541Z,6.63
2023-04-10T15:08:38.949Z,8.70
2023-04-10T15:11:07.598Z,8.38
2023-04-10T15:13:36.047Z,7.28
2023-04-10T15:16:04.405Z,6.68
2023-04-10T15:18:32.697Z,7.60
2023-04-10T15:21:00.997Z,6.05
2023-04-10T15:23:31.086Z,10.70
2023-04-10T15:25:59.506Z,7.95
2023-04-10T15:28:28.342Z,7.32
2023-04-10T15:30:57.799Z,7.18
2023-04-10T15:33:26.138Z,6.65
2023-04-10T15:35:54.474Z,6.43
2023-04-10T15:38:22.778Z,7.47
2023-04-10T15:40:52.487Z,7.10
2023-04-10T15:43:20.777Z,6.38
2023-04-10T15:45:49.092Z,6.28
2023-04-10T15:48:17.382Z,6.93
2023-04-10T15:50:45.710Z,8.10
2023-04-10T15:53:13.954Z,7.18
2023-04-10T15:55:42.273Z,7.22
2023-04-10T15:58:12.002Z,6.78
2023-04-10T16:00:40.342Z,7.63
2023-04-10T16:03:08.756Z,8.88
2023-04-10T16:05:37.145Z,8.55
2023-04-10T16:08:05.789Z,8.10
2023-04-10T16:10:34.066Z,7.88
2023-04-10T16:13:04.423Z,7.32
2023-04-10T16:15:35.602Z,6.72
2023-04-10T16:18:04.734Z,8.20
2023-04-10T16:20:33.252Z,7.38
2023-04-10T16:23:01.631Z,8.43
2023-04-10T16:25:30.850Z,7.95
2023-04-10T16:27:59.249Z,7.20
2023-04-10T16:30:27.576Z,7.85
2023-04-10T16:32:57.298Z,6.75
2023-04-10T16:35:25.679Z,5.70
2023-04-10T16:37:54.363Z,21.63
2023-04-10T16:40:23.090Z,11.98
2023-04-10T16:42:51.391Z,8.52
2023-04-10T16:45:19.779Z,8.88
2023-04-10T16:47:48.098Z,11.35
2023-04-10T16:50:18.046Z,5.82
2023-04-10T16:52:46.375Z,6.40
2023-04-10T16:55:14.904Z,9.07
2023-04-10T16:57:44.171Z,5.28
2023-04-10T17:00:13.381Z,8.23
2023-04-10T17:02:42.889Z,8.35
2023-04-10T17:05:13.607Z,5.68
2023-04-10T17:07:44.576Z,5.70
2023-04-10T17:10:13.461Z,6.38
2023-04-10T17:12:42.520Z,5.43
2023-04-10T17:15:11.626Z,6.10
2023-04-10T17:17:39.940Z,6.90
2023-04-10T17:20:09.892Z,9.45
2023-04-10T17:22:38.849Z,5.72
2023-04-10T17:25:09.608Z,5.97
2023-04-10T17:27:40.289Z,7.63
2023-04-10T17:30:13.027Z,8.23
2023-04-10T17:32:41.927Z,7.85
2023-04-10T17:35:10.601Z,7.65
2023-04-10T17:37:38.857Z,9.68
2023-04-10T17:40:10.008Z,8.10
2023-04-10T17:42:38.382Z,10.60
2023-04-10T17:45:07.979Z,10.70
2023-04-10T17:47:36.449Z,9.63
2023-04-10T17:50:05.198Z,10.48
2023-04-10T17:52:33.765Z,11.70
2023-04-10T17:55:02.379Z,10.55
2023-04-10T17:57:32.062Z,11.40
2023-04-10T18:00:00.416Z,12.18
2023-04-10T18:02:28.905Z,11.63
2023-04-10T18:04:57.578Z,11.93
2023-04-10T18:07:25.914Z,11.13
2023-04-10T18:09:54.161Z,10.90
2023-04-10T18:12:22.420Z,11.50
2023-04-10T18:14:52.330Z,12.57
2023-04-10T18:17:20.617Z,11.98
2023-04-10T18:19:49.023Z,11.95
2023-04-10T18:22:17.339Z,11.40
2023-04-10T18:24:48.082Z,13.00
2023-04-10T18:27:16.506Z,13.25
2023-04-10T18:29:44.837Z,18.67
2023-04-10T18:32:14.546Z,12.80
2023-04-10T18:34:42.834Z,12.50
2023-04-10T18:37:11.187Z,14.70
2023-04-10T18:39:39.402Z,13.63
2023-04-10T18:42:10.829Z,14.50
2023-04-10T18:44:39.237Z,13.85
2023-04-10T18:47:07.667Z,12.98
2023-04-10T18:49:37.489Z,12.27
2023-04-10T18:52:05.761Z,13.88
2023-04-10T18:54:35.173Z,14.02
2023-04-10T18:57:03.535Z,16.02
2023-04-10T18:59:32.100Z,14.02
2023-04-10T19:02:00.589Z,14.07
2023-04-10T19:04:29.136Z,14.43
2023-04-10T19:06:58.874Z,15.52
2023-04-10T19:09:27.421Z,14.35
2023-04-10T19:11:56.251Z,16.02
2023-04-10T19:14:24.564Z,13.98
2023-04-10T19:16:52.909Z,14.38
2023-04-10T19:19:21.193Z,15.10
2023-04-10T19:21:49.536Z,15.38
2023-04-10T19:24:19.292Z,14.55
2023-04-10T19:26:47.599Z,14.93
2023-04-10T19:29:15.900Z,15.00
2023-04-10T19:31:44.285Z,15.18
2023-04-10T19:34:12.678Z,15.93
2023-04-10T19:36:41.903Z,15.80
2023-04-10T19:39:10.214Z,16.65
2023-04-10T19:41:42.310Z,14.52
2023-04-10T19:44:10.788Z,18.92
2023-04-10T19:46:39.214Z,15.75
2023-04-10T19:49:07.933Z,14.23
2023-04-10T19:51:36.258Z,15.10
2023-04-10T19:54:04.591Z,15.25
2023-04-10T19:56:34.918Z,15.63
2023-04-10T19:59:04.707Z,15.30
2023-04-10T20:01:33.804Z,14.65
2023-04-10T20:04:02.257Z,15.00
2023-04-10T20:06:31.872Z,14.07
2023-04-10T20:09:00.296Z,16.75
2023-04-10T20:11:30.703Z,14.60
2023-04-10T20:13:59.158Z,14.88
2023-04-10T20:16:28.888Z,17.60
2023-04-10T20:18:57.606Z,16.67
2023-04-10T20:21:27.397Z,16.95
2023-04-10T20:23:57.453Z,16.48
2023-04-10T20:26:26.417Z,19.02
2023-04-10T20:28:55.208Z,19.52
2023-04-10T20:31:23.779Z,20.10
2023-04-10T20:33:54.360Z,17.23
2023-04-10T20:36:22.750Z,18.13
2023-04-10T20:38:51.002Z,17.17
2023-04-10T20:41:19.364Z,16.35
2023-04-10T20:43:47.641Z,13.90
2023-04-10T20:46:15.964Z,16.30
2023-04-10T20:48:44.268Z,15.85
2023-04-10T20:51:13.969Z,13.02
2023-04-10T20:53:42.254Z,16.17
2023-04-10T20:56:10.956Z,13.60
2023-04-10T20:58:39.268Z,15.07
2023-04-10T21:01:10.211Z,14.82
2023-04-10T21:03:38.713Z,15.32
2023-04-10T21:06:08.050Z,14.95
2023-04-10T21:08:37.772Z,15.57
2023-04-10T21:11:06.354Z,14.57
2023-04-10T21:13:36.481Z,15.05
2023-04-10T21:16:06.922Z,13.65
2023-04-10T21:18:35.259Z,13.18
2023-04-10T21:21:03.538Z,13.20
2023-04-10T21:23:31.838Z,13.63
2023-04-10T21:26:01.730Z,14.80
2023-04-10T21:28:29.986Z,13.48
2023-04-10T21:30:58.244Z,12.82
2023-04-10T21:33:26.554Z,12.68
2023-04-10T21:35:54.966Z,13.88
2023-04-10T21:38:24.046Z,13.77
2023-04-10T21:40:52.647Z,13.93
2023-04-10T21:43:23.015Z,14.25
2023-04-10T21:45:51.301Z,13.35
2023-04-10T21:48:20.720Z,13.32
2023-04-10T21:50:50.843Z,13.10
2023-04-10T21:53:19.224Z,11.85
2023-04-10T21:55:47.558Z,14.95
2023-04-10T21:58:15.819Z,11.13
2023-04-10T22:00:47.309Z,12.27
2023-04-10T22:03:16.868Z,12.25
2023-04-10T22:05:46.005Z,11.10
2023-04-10T22:08:15.040Z,10.88
2023-04-10T22:10:45.508Z,12.02
2023-04-10T22:13:27.347Z,12.13
2023-04-10T22:16:02.996Z,15.68
2023-04-10T22:18:31.469Z,11.43
2023-04-10T22:20:59.853Z,12.32
2023-04-10T22:23:28.241Z,12.00
2023-04-10T22:25:56.497Z,11.13
2023-04-10T22:28:24.798Z,12.70
2023-04-10T22:30:53.280Z,12.52
2023-04-10T22:33:22.995Z,13.27
2023-04-10T22:35:53.864Z,13.05
2023-04-10T22:38:22.251Z,11.93
2023-04-10T22:40:50.602Z,11.35
2023-04-10T22:43:18.826Z,13.35
2023-04-10T22:45:47.192Z,16.67
2023-04-10T22:48:15.463Z,14.50
2023-04-10T22:50:45.236Z,13.13
2023-04-10T22:53:13.519Z,14.45
2023-04-10T22:55:42.129Z,15.95
2023-04-10T22:58:10.414Z,16.52
2023-04-10T23:00:38.701Z,15.98
2023-04-10T23:03:07.208Z,16.30
2023-04-10T23:05:35.468Z,15.23
2023-04-10T23:08:05.254Z,18.85
2023-04-10T23:10:33.522Z,17.75
2023-04-10T23:13:01.835Z,16.60
2023-04-10T23:15:33.350Z,18.08
2023-04-10T23:18:01.827Z,16.58
2023-04-10T23:20:30.146Z,18.88
2023-04-10T23:22:58.623Z,17.48
2023-04-10T23:25:28.309Z,17.25
2023-04-10T23:27:58.013Z,19.35
2023-04-10T23:30:26.396Z,18.27
2023-04-10T23:32:54.719Z,15.10
2023-04-10T23:35:23.127Z,19.85
2023-04-10T23:37:51.521Z,16.33
2023-04-10T23:40:20.211Z,16.75
2023-04-10T23:42:49.957Z,17.48
2023-04-10T23:45:18.478Z,16.45
2023-04-10T23:47:47.742Z,15.48
2023-04-10T23:50:17.100Z,15.55
2023-04-10T23:52:49.526Z,14.95
2023-04-10T23:55:18.097Z,16.83
2023-04-10T23:57:46.433Z,14.50
